createdAt,value
2022-08-12T00:00:34.303Z,73.15
2022-08-12T00:02:03.632Z,73.15
2022-08-12T00:02:35.319Z,72.74
2022-08-12T00:03:40.401Z,73.35
2022-08-12T00:04:34.266Z,73.35
2022-08-12T00:05:34.452Z,73.35
2022-08-12T00:06:34.240Z,73.35
2022-08-12T00:07:34.231Z,73.35
2022-08-12T00:08:36.837Z,73.55
2022-08-12T00:09:34.215Z,73.66
2022-08-12T00:10:34.198Z,73.55
2022-08-12T00:11:34.186Z,73.35
2022-08-12T00:12:34.175Z,73.12
2022-08-12T00:13:34.163Z,72.41
2022-08-12T00:14:34.153Z,72.30
2022-08-12T00:15:34.143Z,72.41
2022-08-12T00:16:34.135Z,72.34
2022-08-12T00:17:34.122Z,72.65
2022-08-12T00:18:34.119Z,72.85
2022-08-12T00:19:34.107Z,73.35
2022-08-12T00:20:34.096Z,73.69
2022-08-12T00:21:35.912Z,73.99
2022-08-12T00:22:34.082Z,74.10
2022-08-12T00:23:34.257Z,74.30
2022-08-12T00:24:34.048Z,73.79
2022-08-12T00:26:00.366Z,73.99
2022-08-12T00:26:35.061Z,73.93
2022-08-12T00:27:43.584Z,74.44
2022-08-12T00:28:35.044Z,74.54
2022-08-12T00:29:33.992Z,74.84
2022-08-12T00:30:33.977Z,75.18
2022-08-12T00:31:33.967Z,76.09
2022-08-12T00:32:35.865Z,76.40
2022-08-12T00:33:38.707Z,76.20
2022-08-12T00:34:35.193Z,76.70
2022-08-12T00:35:36.778Z,76.60
2022-08-12T00:36:35.821Z,76.60
2022-08-12T00:37:33.903Z,77.01
2022-08-12T00:38:34.014Z,76.70
2022-08-12T00:39:33.929Z,76.60
2022-08-12T00:40:33.882Z,76.70
2022-08-12T00:41:33.860Z,76.81
2022-08-12T00:42:33.850Z,76.50
2022-08-12T00:43:33.852Z,76.81
2022-08-12T00:44:33.826Z,76.91
2022-08-12T00:45:34.022Z,76.40
2022-08-12T00:46:34.012Z,76.60
2022-08-12T00:47:33.803Z,76.91
2022-08-12T00:48:33.802Z,77.25
2022-08-12T00:49:33.975Z,77.55
2022-08-12T00:50:33.764Z,77.66
2022-08-12T00:51:33.754Z,78.06
2022-08-12T00:52:33.745Z,77.86
2022-08-12T00:53:33.736Z,78.06
2022-08-12T00:54:33.719Z,78.47
2022-08-12T00:55:33.716Z,78.67
2022-08-12T00:56:33.699Z,78.97
2022-08-12T00:57:33.694Z,79.11
2022-08-12T00:58:33.678Z,79.11
2022-08-12T00:59:33.666Z,78.50
2022-08-12T01:00:33.662Z,78.50
2022-08-12T01:02:02.482Z,78.06
2022-08-12T01:02:34.736Z,77.45
2022-08-12T01:03:33.622Z,77.55
2022-08-12T01:04:39.618Z,77.25
2022-08-12T01:05:33.600Z,76.81
2022-08-12T01:06:39.602Z,77.52
2022-08-12T01:07:33.586Z,77.62
2022-08-12T01:08:33.567Z,77.75
2022-08-12T01:09:33.564Z,78.06
2022-08-12T01:10:33.548Z,78.97
2022-08-12T01:11:33.536Z,78.97
2022-08-12T01:12:33.526Z,79.01
2022-08-12T01:13:33.528Z,79.41
2022-08-12T01:14:33.508Z,80.02
2022-08-12T01:15:33.498Z,80.06
2022-08-12T01:16:33.482Z,80.57
2022-08-12T01:17:33.473Z,80.78
2022-08-12T01:18:33.461Z,80.47
2022-08-12T01:19:33.454Z,80.98
2022-08-12T01:20:33.437Z,81.12
2022-08-12T01:21:33.636Z,81.42
2022-08-12T01:22:33.417Z,81.53
2022-08-12T01:23:33.412Z,82.03
2022-08-12T01:24:33.395Z,82.68
2022-08-12T01:25:33.395Z,82.68
2022-08-12T01:26:33.378Z,82.89
2022-08-12T01:27:33.363Z,82.68
2022-08-12T01:28:33.357Z,82.78
2022-08-12T01:29:33.565Z,82.37
2022-08-12T01:30:33.537Z,82.28
2022-08-12T01:31:33.335Z,82.31
2022-08-12T01:32:33.310Z,82.72
2022-08-12T01:33:33.304Z,82.82
2022-08-12T01:34:36.179Z,83.03
2022-08-12T01:35:39.295Z,83.12
2022-08-12T01:36:33.266Z,83.47
2022-08-12T01:37:33.258Z,83.27
2022-08-12T01:38:33.255Z,83.47
2022-08-12T01:39:33.363Z,83.17
2022-08-12T01:40:37.679Z,82.86
2022-08-12T01:41:33.212Z,82.96
2022-08-12T01:42:33.208Z,82.65
2022-08-12T01:43:33.192Z,82.56
2022-08-12T01:44:33.183Z,83.06
2022-08-12T01:45:43.152Z,83.06
2022-08-12T01:46:33.169Z,83.67
2022-08-12T01:47:33.149Z,84.19
2022-08-12T01:48:39.147Z,84.02
2022-08-12T01:49:33.128Z,84.02
2022-08-12T01:50:33.327Z,84.02
2022-08-12T01:52:21.869Z,84.02
2022-08-12T01:52:34.141Z,84.22
2022-08-12T01:53:50.483Z,84.12
2022-08-12T01:54:34.109Z,84.22
2022-08-12T01:55:33.066Z,84.02
2022-08-12T01:56:33.052Z,84.02
2022-08-12T01:57:59.237Z,84.63
2022-08-12T01:58:34.067Z,84.12
2022-08-12T01:59:33.022Z,84.33
2022-08-12T02:00:36.084Z,84.53
2022-08-12T02:01:34.113Z,84.33
2022-08-12T02:02:32.995Z,84.22
2022-08-12T02:03:32.981Z,84.42
2022-08-12T02:04:32.970Z,84.94
2022-08-12T02:05:33.112Z,85.04
2022-08-12T02:06:32.949Z,84.83
2022-08-12T02:07:32.937Z,85.35
2022-08-12T02:08:32.929Z,85.14
2022-08-12T02:09:32.923Z,84.83
2022-08-12T02:10:50.158Z,85.04
2022-08-12T02:11:33.929Z,85.04
2022-08-12T02:12:32.890Z,85.55
2022-08-12T02:13:42.036Z,85.75
2022-08-12T02:14:33.898Z,86.16
2022-08-12T02:15:32.852Z,85.85
2022-08-12T02:16:33.046Z,85.96
2022-08-12T02:17:54.627Z,86.10
2022-08-12T02:18:33.855Z,86.81
2022-08-12T02:19:33.012Z,86.92
2022-08-12T02:20:35.173Z,86.61
2022-08-12T02:21:33.824Z,86.92
2022-08-12T02:22:32.776Z,87.32
2022-08-12T02:23:32.769Z,87.42
2022-08-12T02:24:32.754Z,87.32
2022-08-12T02:25:32.743Z,87.62
2022-08-12T02:26:32.729Z,88.03
2022-08-12T02:27:32.720Z,87.87
2022-08-12T02:28:32.707Z,87.97
2022-08-12T02:29:32.709Z,88.38
2022-08-12T02:30:41.228Z,88.28
2022-08-12T02:31:33.726Z,88.89
2022-08-12T02:32:32.671Z,88.99
2022-08-12T02:33:32.657Z,88.99
2022-08-12T02:34:32.649Z,88.89
2022-08-12T02:35:32.638Z,89.30
2022-08-12T02:36:32.622Z,89.40
2022-08-12T02:37:32.616Z,88.38
2022-08-12T02:38:32.617Z,88.79
2022-08-12T02:39:32.668Z,88.79
2022-08-12T02:40:32.595Z,90.77
2022-08-12T02:41:32.570Z,90.67
2022-08-12T02:42:32.557Z,90.97
2022-08-12T02:43:32.555Z,90.87
2022-08-12T02:44:32.547Z,92.19
2022-08-12T02:45:32.531Z,91.79
2022-08-12T02:46:32.570Z,91.89
2022-08-12T02:47:59.231Z,91.58
2022-08-12T02:48:33.536Z,90.63
2022-08-12T02:49:32.491Z,89.50
2022-08-12T02:50:32.477Z,88.75
2022-08-12T02:51:32.478Z,88.24
2022-08-12T02:52:32.453Z,88.44
2022-08-12T02:53:32.444Z,88.34
2022-08-12T02:54:32.434Z,88.64
2022-08-12T02:55:34.901Z,88.64
2022-08-12T02:56:32.418Z,88.59
2022-08-12T02:57:32.402Z,88.89
2022-08-12T02:58:33.316Z,89.09
2022-08-12T02:59:32.586Z,89.50
2022-08-12T03:00:32.376Z,90.05
2022-08-12T03:01:32.621Z,90.26
2022-08-12T03:02:32.350Z,90.05
2022-08-12T03:03:32.360Z,90.16
2022-08-12T03:04:32.325Z,89.85
2022-08-12T03:05:32.314Z,89.75
2022-08-12T03:06:32.309Z,90.05
2022-08-12T03:07:55.901Z,90.26
2022-08-12T03:08:33.521Z,90.36
2022-08-12T03:09:35.851Z,90.97
2022-08-12T03:10:37.620Z,91.38
2022-08-12T03:11:32.252Z,91.48
2022-08-12T03:12:47.462Z,91.43
2022-08-12T03:13:33.473Z,91.93
2022-08-12T03:14:32.230Z,91.58
2022-08-12T03:15:32.209Z,92.19
2022-08-12T03:16:33.147Z,91.99
2022-08-12T03:17:32.187Z,92.09
2022-08-12T03:18:32.175Z,91.69
2022-08-12T03:19:32.172Z,91.48
2022-08-12T03:20:32.159Z,91.58
2022-08-12T03:21:55.678Z,91.03
2022-08-12T03:22:33.170Z,90.63
2022-08-12T03:23:32.131Z,89.91
2022-08-12T03:24:38.120Z,89.81
2022-08-12T03:25:32.109Z,89.20
2022-08-12T03:26:32.092Z,89.91
2022-08-12T03:27:32.134Z,89.81
2022-08-12T03:28:32.068Z,89.30
2022-08-12T03:29:32.059Z,89.50
2022-08-12T03:30:33.085Z,89.81
2022-08-12T03:31:32.040Z,89.77
2022-08-12T03:32:35.852Z,89.16
2022-08-12T03:33:34.080Z,89.26
2022-08-12T03:34:32.009Z,89.16
2022-08-12T03:35:41.377Z,88.95
2022-08-12T03:36:33.019Z,88.54
2022-08-12T03:37:31.972Z,88.54
2022-08-12T03:38:31.964Z,88.44
2022-08-12T03:39:36.016Z,88.24
2022-08-12T03:40:31.944Z,88.34
2022-08-12T03:41:31.930Z,87.79
2022-08-12T03:42:31.925Z,88.00
2022-08-12T03:43:31.911Z,87.79
2022-08-12T03:44:31.913Z,87.68
2022-08-12T03:45:31.836Z,87.79
2022-08-12T03:46:31.892Z,87.73
2022-08-12T03:47:31.828Z,86.81
2022-08-12T03:48:31.805Z,86.71
2022-08-12T03:49:31.998Z,86.92
2022-08-12T03:50:31.836Z,87.77
2022-08-12T03:51:31.831Z,87.77
2022-08-12T03:52:31.849Z,87.97
2022-08-12T03:53:31.764Z,88.07
2022-08-12T03:54:31.999Z,87.77
2022-08-12T03:55:31.783Z,87.67
2022-08-12T03:56:31.731Z,87.77
2022-08-12T03:57:31.719Z,87.60
2022-08-12T03:58:31.698Z,88.07
2022-08-12T03:59:31.693Z,88.12
2022-08-12T04:00:31.683Z,88.62
2022-08-12T04:01:31.814Z,88.73
2022-08-12T04:02:32.688Z,89.44
2022-08-12T04:03:31.643Z,88.53
2022-08-12T04:04:31.633Z,88.18
2022-08-12T04:05:54.515Z,88.69
2022-08-12T04:06:34.814Z,88.69
2022-08-12T04:07:31.609Z,88.59
2022-08-12T04:08:31.594Z,87.97
2022-08-12T04:09:31.581Z,88.07
2022-08-12T04:10:31.571Z,87.53
2022-08-12T04:11:32.262Z,87.62
2022-08-12T04:12:32.854Z,87.42
2022-08-12T04:13:32.574Z,87.38
2022-08-12T04:14:31.533Z,86.77
2022-08-12T04:15:31.534Z,86.67
2022-08-12T04:16:31.506Z,86.16
2022-08-12T04:17:31.507Z,86.16
2022-08-12T04:18:31.489Z,86.05
2022-08-12T04:19:31.482Z,86.37
2022-08-12T04:20:31.468Z,86.26
2022-08-12T04:21:31.453Z,86.67
2022-08-12T04:22:31.443Z,87.89
2022-08-12T04:23:31.450Z,88.09
2022-08-12T04:24:31.419Z,88.09
2022-08-12T04:25:31.415Z,87.68
2022-08-12T04:26:31.405Z,87.13
2022-08-12T04:27:32.117Z,85.67
2022-08-12T04:28:31.379Z,84.31
2022-08-12T04:30:30.138Z,82.64
2022-08-12T04:30:33.749Z,81.59
2022-08-12T04:31:31.342Z,80.40
2022-08-12T04:32:31.378Z,78.19
2022-08-12T04:33:31.322Z,76.73
2022-08-12T04:34:31.312Z,75.34
2022-08-12T04:35:31.305Z,74.40
2022-08-12T04:36:31.293Z,73.69
2022-08-12T04:37:58.137Z,73.49
2022-08-12T04:38:32.306Z,73.15
2022-08-12T04:39:31.278Z,73.49
2022-08-12T04:40:31.295Z,73.49
2022-08-12T04:41:31.244Z,74.13
2022-08-12T04:42:31.287Z,74.47
2022-08-12T04:44:00.422Z,75.42
2022-08-12T04:44:32.242Z,76.67
2022-08-12T04:45:31.204Z,77.11
2022-08-12T04:46:34.743Z,77.86
2022-08-12T04:47:37.182Z,78.97
2022-08-12T04:48:31.174Z,79.62
2022-08-12T04:49:31.154Z,80.63
2022-08-12T04:50:35.963Z,81.18
2022-08-12T04:51:31.131Z,80.98
2022-08-12T04:52:34.858Z,81.62
2022-08-12T04:53:31.113Z,81.53
2022-08-12T04:54:31.097Z,81.73
2022-08-12T04:55:37.095Z,82.28
2022-08-12T04:56:35.538Z,82.58
2022-08-12T04:57:31.066Z,82.68
2022-08-12T04:58:31.059Z,82.68
2022-08-12T04:59:31.045Z,82.58
2022-08-12T05:00:32.069Z,82.68
2022-08-12T05:01:31.023Z,83.19
2022-08-12T05:02:31.066Z,83.64
2022-08-12T05:03:46.802Z,83.53
2022-08-12T05:04:32.027Z,84.14
2022-08-12T05:05:35.681Z,85.16
2022-08-12T05:06:30.968Z,85.88
2022-08-12T05:07:30.960Z,87.46
2022-08-12T05:08:30.948Z,88.38
2022-08-12T05:09:58.729Z,88.43
2022-08-12T05:10:33.808Z,87.32
2022-08-12T05:11:30.916Z,86.98
2022-08-12T05:12:30.967Z,86.16
2022-08-12T05:13:30.893Z,86.52
2022-08-12T05:14:33.336Z,84.46
2022-08-12T05:15:31.916Z,82.83
2022-08-12T05:16:34.281Z,82.39
2022-08-12T05:17:30.852Z,81.43
2022-08-12T05:18:30.839Z,79.81
2022-08-12T05:19:30.829Z,79.71
2022-08-12T05:20:30.840Z,78.76
2022-08-12T05:21:30.809Z,79.13
2022-08-12T05:22:30.856Z,78.83
2022-08-12T05:23:32.990Z,78.11
2022-08-12T05:24:30.783Z,78.52
2022-08-12T05:25:30.971Z,76.46
2022-08-12T05:26:30.758Z,75.61
2022-08-12T05:27:32.752Z,72.27
2022-08-12T05:28:30.742Z,71.53
2022-08-12T05:30:06.576Z,71.60
2022-08-12T05:30:31.748Z,75.31
2022-08-12T05:31:42.365Z,76.62
2022-08-12T05:32:31.758Z,75.51
2022-08-12T05:33:30.682Z,75.87
2022-08-12T05:34:30.667Z,75.27
2022-08-12T05:35:30.659Z,75.33
2022-08-12T05:36:30.651Z,74.53
2022-08-12T05:37:30.636Z,74.19
2022-08-12T05:38:30.830Z,73.28
2022-08-12T05:39:30.656Z,72.84
2022-08-12T05:40:30.601Z,70.89
2022-08-12T05:41:30.589Z,69.95
2022-08-12T05:42:32.687Z,71.06
2022-08-12T05:43:36.582Z,71.16
2022-08-12T05:44:30.560Z,71.16
2022-08-12T05:45:30.557Z,70.96
2022-08-12T05:46:30.537Z,68.34
2022-08-12T05:47:36.721Z,71.13
2022-08-12T05:48:31.557Z,68.71
2022-08-12T05:49:30.507Z,68.91
2022-08-12T05:50:30.497Z,68.84
2022-08-12T05:51:40.361Z,67.57
2022-08-12T05:52:31.512Z,66.00
2022-08-12T05:53:30.469Z,65.14
2022-08-12T05:54:54.393Z,64.27
2022-08-12T05:55:31.508Z,63.07
2022-08-12T05:56:30.472Z,60.44
2022-08-12T05:57:36.425Z,60.52
2022-08-12T05:58:30.411Z,59.66
2022-08-12T05:59:30.403Z,57.66
2022-08-12T06:00:30.392Z,57.70
2022-08-12T06:02:10.787Z,56.51
2022-08-12T06:02:31.436Z,54.41
2022-08-12T06:03:30.415Z,52.71
2022-08-12T06:04:30.346Z,51.51
2022-08-12T06:05:30.336Z,51.44
2022-08-12T06:06:31.666Z,52.11
2022-08-12T06:08:00.504Z,51.61
2022-08-12T06:08:31.341Z,52.41
2022-08-12T06:09:30.309Z,52.49
2022-08-12T06:10:32.042Z,51.26
2022-08-12T06:11:30.269Z,50.22
2022-08-12T06:12:30.331Z,49.67
2022-08-12T06:13:54.291Z,48.61
2022-08-12T06:14:30.237Z,47.07
2022-08-12T06:15:30.228Z,46.91
2022-08-12T06:16:30.217Z,46.76
2022-08-12T06:17:30.205Z,44.73
2022-08-12T06:18:30.193Z,43.13
2022-08-12T06:20:25.859Z,43.80
2022-08-12T06:20:34.306Z,42.14
2022-08-12T06:21:36.169Z,41.61
2022-08-12T06:22:30.160Z,40.94
2022-08-12T06:23:30.486Z,41.63
2022-08-12T06:24:30.130Z,39.79
2022-08-12T06:25:30.138Z,40.14
2022-08-12T06:26:30.104Z,38.69
2022-08-12T06:27:30.094Z,38.84
2022-08-12T06:28:36.112Z,38.53
2022-08-12T06:30:08.553Z,37.96
2022-08-12T06:30:35.220Z,39.67
2022-08-12T06:31:30.057Z,38.57
2022-08-12T06:32:30.162Z,39.04
2022-08-12T06:34:00.934Z,39.95
2022-08-12T06:35:26.142Z,40.11
2022-08-12T06:35:47.492Z,39.08
2022-08-12T06:36:33.361Z,37.98
2022-08-12T06:37:29.990Z,36.49
2022-08-12T06:38:29.979Z,37.81
2022-08-12T06:39:30.015Z,36.21
2022-08-12T06:40:29.962Z,38.29
2022-08-12T06:41:29.949Z,36.80
2022-08-12T06:42:32.865Z,36.95
2022-08-12T06:43:29.927Z,36.71
2022-08-12T06:44:30.949Z,36.10
2022-08-12T06:45:45.280Z,35.04
2022-08-12T06:46:30.929Z,35.42
2022-08-12T06:47:29.885Z,33.93
2022-08-12T06:48:29.871Z,34.21
2022-08-12T06:49:29.859Z,33.55
2022-08-12T06:50:39.941Z,34.68
2022-08-12T06:51:29.845Z,36.49
2022-08-12T06:52:29.831Z,35.45
2022-08-12T06:53:29.821Z,33.83
2022-08-12T06:54:31.676Z,33.89
2022-08-12T06:55:29.795Z,33.11
2022-08-12T06:57:01.814Z,31.92
2022-08-12T06:58:05.155Z,32.61
2022-08-12T06:58:30.805Z,32.59
2022-08-12T06:59:29.965Z,31.60
2022-08-12T07:00:32.567Z,32.18
2022-08-12T07:01:35.747Z,30.81
2022-08-12T07:02:32.561Z,31.31
2022-08-12T07:03:29.711Z,32.22
2022-08-12T07:04:38.239Z,33.13
2022-08-12T07:05:31.690Z,32.92
2022-08-12T07:06:29.686Z,32.75
2022-08-12T07:07:29.670Z,34.55
2022-08-12T07:08:35.675Z,33.45
2022-08-12T07:09:59.498Z,33.13
2022-08-12T07:10:30.881Z,33.29
2022-08-12T07:11:29.834Z,31.23
2022-08-12T07:12:35.629Z,32.34
2022-08-12T07:13:29.605Z,31.86
2022-08-12T07:14:29.598Z,31.82
2022-08-12T07:15:29.589Z,31.12
2022-08-12T07:16:29.783Z,31.32
2022-08-12T07:17:29.774Z,31.63
2022-08-12T07:18:29.559Z,31.81
2022-08-12T07:19:40.608Z,31.42
2022-08-12T07:20:51.696Z,32.07
2022-08-12T07:22:00.252Z,31.15
2022-08-12T07:22:30.753Z,30.76
2022-08-12T07:23:29.706Z,30.05
2022-08-12T07:24:29.491Z,28.96
2022-08-12T07:25:37.546Z,29.05
2022-08-12T07:26:30.511Z,29.55
2022-08-12T07:27:29.479Z,28.57
2022-08-12T07:28:29.460Z,28.84
2022-08-12T07:29:58.228Z,29.02
2022-08-12T07:30:30.485Z,27.55
2022-08-12T07:31:29.418Z,28.72
2022-08-12T07:32:29.643Z,27.55
2022-08-12T07:33:29.400Z,27.83
2022-08-12T07:34:29.433Z,27.62
2022-08-12T07:35:29.379Z,27.61
2022-08-12T07:36:29.372Z,28.38
2022-08-12T07:37:29.357Z,27.83
2022-08-12T07:38:30.545Z,28.05
2022-08-12T07:39:29.577Z,28.82
2022-08-12T07:40:29.327Z,28.77
2022-08-12T07:41:29.317Z,27.27
2022-08-12T07:42:29.495Z,26.84
2022-08-12T07:43:29.310Z,25.28
2022-08-12T07:44:35.293Z,24.51
2022-08-12T07:45:29.488Z,25.57
2022-08-12T07:46:29.263Z,25.45
2022-08-12T07:47:29.259Z,25.14
2022-08-12T07:48:35.456Z,24.56
2022-08-12T07:49:29.242Z,24.98
2022-08-12T07:50:29.228Z,24.30
2022-08-12T07:51:29.442Z,25.18
2022-08-12T07:52:29.208Z,25.26
2022-08-12T07:53:29.397Z,24.10
2022-08-12T07:54:29.188Z,25.45
2022-08-12T07:55:29.176Z,24.95
2022-08-12T07:56:29.166Z,24.53
2022-08-12T07:57:35.158Z,23.57
2022-08-12T07:58:29.347Z,24.63
2022-08-12T07:59:31.194Z,24.04
2022-08-12T08:00:29.129Z,23.06
2022-08-12T08:01:29.435Z,24.01
2022-08-12T08:02:29.103Z,24.80
2022-08-12T08:03:29.107Z,24.59
2022-08-12T08:04:29.088Z,25.36
2022-08-12T08:05:29.076Z,24.15
2022-08-12T08:06:29.068Z,24.15
2022-08-12T08:07:29.257Z,24.58
2022-08-12T08:08:35.054Z,25.78
2022-08-12T08:09:29.037Z,25.36
2022-08-12T08:10:29.030Z,24.46
2022-08-12T08:12:19.052Z,22.52
2022-08-12T08:13:12.840Z,22.90
2022-08-12T08:14:11.795Z,22.92
2022-08-12T08:15:11.784Z,24.03
2022-08-12T08:16:11.979Z,23.56
2022-08-12T08:17:19.969Z,23.98
2022-08-12T08:18:13.249Z,24.91
2022-08-12T08:19:11.747Z,25.78
2022-08-12T08:20:11.752Z,25.88
2022-08-12T08:21:11.724Z,25.27
2022-08-12T08:22:11.917Z,25.67
2022-08-12T08:23:11.905Z,25.09
2022-08-12T08:24:11.692Z,25.37
2022-08-12T08:25:36.669Z,25.37
2022-08-12T08:26:11.877Z,25.17
2022-08-12T08:27:11.663Z,25.17
2022-08-12T08:28:11.660Z,24.38
2022-08-12T08:29:11.648Z,24.99
2022-08-12T08:30:11.637Z,25.20
2022-08-12T08:31:11.625Z,25.26
2022-08-12T08:32:11.620Z,23.77
2022-08-12T08:33:20.099Z,23.95
2022-08-12T08:34:33.211Z,24.48
2022-08-12T08:35:12.623Z,24.87
2022-08-12T08:36:23.669Z,24.07
2022-08-12T08:37:15.393Z,23.78
2022-08-12T08:38:28.745Z,24.49
2022-08-12T08:39:11.651Z,24.48
2022-08-12T08:40:11.745Z,23.90
2022-08-12T08:42:15.824Z,25.01
2022-08-12T08:42:20.317Z,24.91
2022-08-12T08:43:11.516Z,24.62
2022-08-12T08:44:11.770Z,24.45
2022-08-12T08:45:11.702Z,25.49
2022-08-12T08:46:11.504Z,25.21
2022-08-12T08:47:11.483Z,24.80
2022-08-12T08:48:11.561Z,23.88
2022-08-12T08:49:17.471Z,23.97
2022-08-12T08:50:11.453Z,23.40
2022-08-12T08:51:11.441Z,23.99
2022-08-12T08:52:39.238Z,23.67
2022-08-12T08:53:12.455Z,22.98
2022-08-12T08:54:11.410Z,23.81
2022-08-12T08:55:11.403Z,24.01
2022-08-12T08:56:11.391Z,25.17
2022-08-12T08:57:11.391Z,23.69
2022-08-12T08:58:13.375Z,24.10
2022-08-12T08:59:17.370Z,24.19
2022-08-12T09:00:11.353Z,23.35
2022-08-12T09:01:11.445Z,23.14
2022-08-12T09:02:13.428Z,22.70
2022-08-12T09:04:21.183Z,22.90
2022-08-12T09:05:16.357Z,22.98
2022-08-12T09:06:11.505Z,23.44
2022-08-12T09:07:17.824Z,22.86
2022-08-12T09:08:19.250Z,22.92
2022-08-12T09:09:13.071Z,21.94
2022-08-12T09:10:53.340Z,22.39
2022-08-12T09:11:12.289Z,23.79
2022-08-12T09:13:22.848Z,22.50
2022-08-12T09:14:19.153Z,23.41
2022-08-12T09:15:19.498Z,23.99
2022-08-12T09:16:12.343Z,23.92
2022-08-12T09:17:11.400Z,24.12
2022-08-12T09:18:11.227Z,23.70
2022-08-12T09:19:27.443Z,23.60
2022-08-12T09:20:15.900Z,23.79
2022-08-12T09:21:11.167Z,24.24
2022-08-12T09:22:11.565Z,24.24
2022-08-12T09:23:57.600Z,24.01
2022-08-12T09:24:12.173Z,23.50
2022-08-12T09:25:25.970Z,23.22
2022-08-12T09:26:13.316Z,23.61
2022-08-12T09:28:19.443Z,24.08
2022-08-12T09:29:12.469Z,23.53
2022-08-12T09:30:14.208Z,24.08
2022-08-12T09:32:03.818Z,22.70
2022-08-12T09:32:57.129Z,22.77
2022-08-12T09:33:18.668Z,22.07
2022-08-12T09:34:28.503Z,21.88
2022-08-12T09:35:18.533Z,22.56
2022-08-12T09:36:12.466Z,22.29
2022-08-12T09:37:57.921Z,22.60
2022-08-12T09:38:58.517Z,22.71
2022-08-12T09:40:06.017Z,23.02
2022-08-12T09:41:01.651Z,23.91
2022-08-12T09:42:09.028Z,23.10
2022-08-12T09:42:49.233Z,23.76
2022-08-12T09:43:47.094Z,22.10
2022-08-12T09:44:47.931Z,22.49
2022-08-12T09:46:29.787Z,21.99
2022-08-12T09:47:29.802Z,21.87
2022-08-12T09:48:35.139Z,21.16
2022-08-12T09:49:30.779Z,21.47
2022-08-12T09:50:29.526Z,21.87
2022-08-12T09:51:37.393Z,22.18
2022-08-12T09:52:31.846Z,22.48
2022-08-12T09:53:38.556Z,22.07
2022-08-12T09:54:34.250Z,22.48
2022-08-12T09:55:59.418Z,22.46
2022-08-12T09:56:59.581Z,21.49
2022-08-12T09:58:46.031Z,21.97
2022-08-12T09:58:53.771Z,22.83
2022-08-12T10:00:16.325Z,21.48
2022-08-12T10:00:43.191Z,22.34
2022-08-12T10:01:35.167Z,21.27
2022-08-12T10:02:53.159Z,21.83
2022-08-12T10:03:32.681Z,21.46
2022-08-12T10:04:30.220Z,21.47
2022-08-12T10:06:20.045Z,21.29
2022-08-12T10:06:32.412Z,21.78
2022-08-12T10:07:40.268Z,22.56
2022-08-12T10:08:29.791Z,21.86
2022-08-12T10:09:58.679Z,21.66
2022-08-12T10:10:30.768Z,21.38
2022-08-12T10:11:29.562Z,21.89
2022-08-12T10:12:31.445Z,22.22
2022-08-12T10:13:36.692Z,22.70
2022-08-12T10:14:33.307Z,22.80
2022-08-12T10:16:01.580Z,23.07
2022-08-12T10:16:33.951Z,22.87
2022-08-12T10:17:31.317Z,22.19
2022-08-12T10:19:17.041Z,21.80
2022-08-12T10:20:09.953Z,22.38
2022-08-12T10:21:07.996Z,22.24
2022-08-12T10:22:17.196Z,22.73
2022-08-12T10:23:09.402Z,21.89
2022-08-12T10:24:07.957Z,22.25
2022-08-12T10:25:17.673Z,21.38
2022-08-12T10:26:35.409Z,21.66
2022-08-12T10:27:08.971Z,21.36
2022-08-12T10:28:24.593Z,20.80
2022-08-12T10:30:38.783Z,21.39
2022-08-12T10:30:39.826Z,21.36
2022-08-12T10:31:16.432Z,20.49
2022-08-12T10:32:21.091Z,20.59
2022-08-12T10:33:17.971Z,21.00
2022-08-12T10:34:23.610Z,20.93
2022-08-12T10:35:08.076Z,21.33
2022-08-12T10:36:13.875Z,21.92
2022-08-12T10:37:23.445Z,21.70
2022-08-12T10:40:02.008Z,22.13
2022-08-12T10:40:11.521Z,21.22
2022-08-12T10:41:12.216Z,21.30
2022-08-12T10:42:15.303Z,20.98
2022-08-12T10:43:16.765Z,20.67
2022-08-12T10:44:08.244Z,21.00
2022-08-12T10:45:08.638Z,20.40
2022-08-12T10:46:13.618Z,20.40
2022-08-12T10:47:26.217Z,21.17
2022-08-12T10:49:06.603Z,20.87
2022-08-12T10:50:28.216Z,21.25
2022-08-12T10:51:03.951Z,20.88
2022-08-12T10:52:34.959Z,20.70
2022-08-12T10:53:03.924Z,20.80
2022-08-12T10:54:02.880Z,21.20
2022-08-12T10:55:02.872Z,21.04
2022-08-12T10:56:08.872Z,19.38
2022-08-12T10:57:08.869Z,19.19
2022-08-12T10:58:45.991Z,19.81
2022-08-12T10:59:39.146Z,18.46
2022-08-12T11:00:55.308Z,19.63
2022-08-12T11:04:16.732Z,19.26
2022-08-12T11:04:25.040Z,19.54
2022-08-12T11:04:35.500Z,18.89
2022-08-12T11:04:49.522Z,20.00
2022-08-12T11:07:08.365Z,19.23
2022-08-12T11:07:09.092Z,19.70
2022-08-12T11:08:38.705Z,19.99
2022-08-12T11:08:43.021Z,19.28
2022-08-12T11:10:14.308Z,18.84
2022-08-12T11:11:16.990Z,18.19
2022-08-12T11:12:55.110Z,18.78
2022-08-12T11:13:50.334Z,19.03
2022-08-12T11:14:51.478Z,19.62
2022-08-12T11:16:03.267Z,19.91
2022-08-12T11:17:33.678Z,19.83
2022-08-12T11:17:54.507Z,19.91
2022-08-12T11:18:55.004Z,19.88
2022-08-12T11:19:58.097Z,20.37
2022-08-12T11:21:39.615Z,19.09
2022-08-12T11:22:33.965Z,19.68
2022-08-12T11:23:38.811Z,19.29
2022-08-12T11:24:38.804Z,19.08
2022-08-12T11:25:56.044Z,18.81
2022-08-12T11:27:17.134Z,18.61
2022-08-12T11:28:17.321Z,19.68
2022-08-12T11:29:22.587Z,19.50
2022-08-12T11:30:30.551Z,19.40
2022-08-12T11:31:18.152Z,20.00
2022-08-12T11:32:23.201Z,19.99
2022-08-12T11:33:24.336Z,19.88
2022-08-12T11:34:52.564Z,18.93
2022-08-12T11:35:59.803Z,19.31
2022-08-12T11:36:53.526Z,19.11
2022-08-12T11:37:59.403Z,19.01
2022-08-12T11:38:53.889Z,18.65
2022-08-12T11:40:54.084Z,18.87
2022-08-12T11:41:52.837Z,19.38
2022-08-12T11:42:53.118Z,20.06
2022-08-12T11:43:58.962Z,19.94
2022-08-12T11:45:01.034Z,19.05
2022-08-12T11:45:59.032Z,19.46
2022-08-12T11:47:27.510Z,19.37
2022-08-12T11:48:27.895Z,19.46
2022-08-12T11:49:34.533Z,18.85
2022-08-12T11:50:33.485Z,19.03
2022-08-12T11:51:27.475Z,18.65
2022-08-12T11:52:54.885Z,18.93
2022-08-12T11:53:57.641Z,18.46
2022-08-12T11:54:33.598Z,18.35
2022-08-12T11:55:29.631Z,18.45
2022-08-12T11:56:38.202Z,18.15
2022-08-12T11:58:07.164Z,17.96
2022-08-12T12:00:23.973Z,18.46
2022-08-12T12:02:02.813Z,19.56
2022-08-12T12:02:34.561Z,19.46
2022-08-12T12:03:44.266Z,19.35
2022-08-12T12:04:28.991Z,18.86
2022-08-12T12:05:28.523Z,18.28
2022-08-12T12:06:28.640Z,18.09
2022-08-12T12:08:36.579Z,19.05
2022-08-12T12:08:38.197Z,18.75
2022-08-12T12:09:27.594Z,18.95
2022-08-12T12:10:28.422Z,18.75
2022-08-12T12:11:27.387Z,18.86
2022-08-12T12:12:28.815Z,19.36
2022-08-12T12:14:08.481Z,20.26
2022-08-12T12:14:38.156Z,19.98
2022-08-12T12:15:40.968Z,20.45
2022-08-12T12:16:28.393Z,19.79
2022-08-12T12:17:38.356Z,19.69
2022-08-12T12:18:33.564Z,19.89
2022-08-12T12:19:27.551Z,20.45
2022-08-12T12:20:30.566Z,19.86
2022-08-12T12:21:47.415Z,19.84
2022-08-12T12:22:31.023Z,19.32
2022-08-12T12:23:29.235Z,20.02
2022-08-12T12:24:27.320Z,19.86
2022-08-12T12:26:06.509Z,19.15
2022-08-12T12:26:35.297Z,18.69
2022-08-12T12:28:02.612Z,19.28
2022-08-12T12:28:36.826Z,20.07
2022-08-12T12:30:19.315Z,19.66
2022-08-12T12:30:29.879Z,19.86
2022-08-12T12:32:10.250Z,19.74
2022-08-12T12:32:34.524Z,19.42
2022-08-12T12:33:46.221Z,18.56
2022-08-12T12:34:30.296Z,19.03
2022-08-12T12:36:18.159Z,19.13
2022-08-12T12:36:29.918Z,20.29
2022-08-12T12:38:03.785Z,18.62
2022-08-12T12:38:28.352Z,19.05
2022-08-12T12:39:27.338Z,19.34
2022-08-12T12:40:30.099Z,19.26
2022-08-12T12:42:41.877Z,19.36
2022-08-12T12:42:42.889Z,19.29
2022-08-12T12:43:37.110Z,19.66
2022-08-12T12:44:38.423Z,19.26
2022-08-12T12:45:32.408Z,20.12
2022-08-12T12:46:33.430Z,18.96
2022-08-12T12:47:30.011Z,19.18
2022-08-12T12:49:11.158Z,19.18
2022-08-12T12:51:12.742Z,19.79
2022-08-12T12:52:18.972Z,19.28
2022-08-12T12:54:05.915Z,19.49
2022-08-12T12:54:13.711Z,19.87
2022-08-12T12:55:13.357Z,20.25
2022-08-12T12:56:18.859Z,18.97
2022-08-12T12:57:12.646Z,19.35
2022-08-12T12:58:12.644Z,19.47
2022-08-12T12:59:56.479Z,19.46
2022-08-12T13:00:50.155Z,19.99
2022-08-12T13:01:45.387Z,20.38
2022-08-12T13:02:43.713Z,20.27
2022-08-12T13:03:49.507Z,19.79
2022-08-12T13:04:43.359Z,20.19
2022-08-12T13:05:43.348Z,20.20
2022-08-12T13:06:43.395Z,20.19
2022-08-12T13:08:36.170Z,19.48
2022-08-12T13:09:36.283Z,19.59
2022-08-12T13:10:30.608Z,19.87